Time;durP1;ratioP1;P1;durP2;ratioP2;P2;SDS_P1;SDS_P2;PMS_P1;PMS_P2;Temp;Humidity;BMP_temperature;BMP_pressure;BME280_temperature;BME280_humidity;BME280_pressure;Samples;Min_cycle;Max_cycle;Signal;HPM_P1;HPM_P2
2022/04/16 00:01:43;;;;;;;14.13;6.85;;;;;;;6.49;49.14;103263.97;5038199;28;20631;-70
2022/04/16 00:04:09;;;;;;;13.07;7.50;;;;;;;6.51;49.26;103264.00;5036035;28;20424;-69
2022/04/16 00:06:36;;;;;;;10.13;6.55;;;;;;;6.50;49.26;103267.44;5039971;28;20076;-69
2022/04/16 00:09:03;;;;;;;13.60;7.32;;;;;;;6.46;49.37;103266.53;5038267;28;20516;-70
2022/04/16 00:11:28;;;;;;;11.65;6.30;;;;;;;6.50;49.48;103268.31;5041994;28;20053;-70
2022/04/16 00:13:54;;;;;;;11.93;7.00;;;;;;;6.46;49.44;103276.94;5004474;28;20121;-69
2022/04/16 00:16:20;;;;;;;14.00;7.45;;;;;;;6.28;49.92;103280.09;5041319;28;20044;-69
2022/04/16 00:18:46;;;;;;;12.88;7.45;;;;;;;6.36;49.45;103280.22;5038616;28;20033;-70
2022/04/16 00:21:12;;;;;;;13.38;7.43;;;;;;;6.29;49.60;103280.97;5039746;28;20564;-71
2022/04/16 00:23:43;;;;;;;12.55;6.75;;;;;;;6.16;49.65;103279.00;5040102;28;20065;-71
2022/04/16 00:26:11;;;;;;;13.65;5.93;;;;;;;6.18;49.43;103274.69;5039474;28;20043;-71
2022/04/16 00:28:38;;;;;;;11.55;6.13;;;;;;;5.94;49.90;103276.00;5038158;28;20101;-64
2022/04/16 00:31:04;;;;;;;10.75;6.15;;;;;;;5.81;50.38;103284.41;5052623;28;20040;-64
2022/04/16 00:33:31;;;;;;;12.77;6.97;;;;;;;5.52;50.59;103284.72;5025176;28;20556;-66
2022/04/16 00:35:56;;;;;;;16.95;6.90;;;;;;;5.37;51.10;103285.31;5040296;28;20112;-65
2022/04/16 00:38:22;;;;;;;13.25;6.53;;;;;;;5.23;51.37;103279.84;5015722;28;20369;-66
2022/04/16 00:40:47;;;;;;;15.25;7.78;;;;;;;5.11;51.83;103292.53;5042755;28;20059;-67
2022/04/16 00:43:27;;;;;;;14.10;6.57;;;;;;;4.93;52.27;103294.72;5038791;28;20118;-66
2022/04/16 00:45:53;;;;;;;13.88;7.43;;;;;;;5.03;51.85;103291.47;5053799;28;20040;-67
2022/04/16 00:48:20;;;;;;;15.00;7.78;;;;;;;4.81;51.94;103296.19;5040338;28;20276;-65
2022/04/16 00:50:47;;;;;;;18.15;7.80;;;;;;;4.77;52.08;103298.66;5038007;28;20448;-64
2022/04/16 00:53:12;;;;;;;12.98;6.35;;;;;;;4.81;51.90;103306.53;5004423;28;20317;-67
2022/04/16 00:55:38;;;;;;;14.88;6.88;;;;;;;4.87;51.56;103310.09;5032455;28;20087;-69
2022/04/16 00:58:04;;;;;;;15.32;7.38;;;;;;;4.89;51.69;103308.47;5037440;28;20164;-67
2022/04/16 01:00:30;;;;;;;17.67;7.72;;;;;;;4.85;51.91;103310.06;5023530;28;20047;-68
2022/04/16 01:02:56;;;;;;;13.75;6.95;;;;;;;4.86;52.04;103318.72;5037269;28;20497;-68
2022/04/16 01:05:22;;;;;;;17.15;6.97;;;;;;;4.95;51.38;103321.56;5040525;28;20033;-68
2022/04/16 01:07:56;;;;;;;12.98;6.35;;;;;;;4.97;51.86;103322.47;5018988;28;20045;-68
2022/04/16 01:10:26;;;;;;;12.38;6.65;;;;;;;4.96;51.86;103326.75;5041442;28;20086;-69
2022/04/16 01:12:52;;;;;;;11.63;7.00;;;;;;;5.10;51.42;103323.59;5032797;28;20040;-61
2022/04/16 01:15:20;;;;;;;11.48;6.90;;;;;;;5.15;51.40;103324.59;5039724;28;20044;-60
2022/04/16 01:17:50;;;;;;;12.82;6.32;;;;;;;5.16;51.39;103328.94;5016700;28;20040;-61
2022/04/16 01:20:17;;;;;;;15.98;6.43;;;;;;;5.24;51.10;103329.97;5047533;28;20045;-72
2022/04/16 01:22:43;;;;;;;17.17;7.63;;;;;;;5.25;51.38;103329.13;5012277;28;20066;-63
2022/04/16 01:25:09;;;;;;;18.20;7.22;;;;;;;5.28;50.91;103330.91;5046677;28;20040;-65
2022/04/16 01:27:35;;;;;;;17.67;6.05;;;;;;;5.12;51.20;103337.47;5012381;28;20060;-65
2022/04/16 01:30:04;;;;;;;14.55;7.15;;;;;;;4.90;52.09;103330.94;5036376;28;20048;-64
2022/04/16 01:32:32;;;;;;;19.40;7.90;;;;;;;4.98;51.99;103343.22;5037616;28;20048;-63
2022/04/16 01:34:59;;;;;;;12.77;7.47;;;;;;;4.76;52.43;103344.41;5035498;28;20123;-63
2022/04/16 01:37:24;;;;;;;21.08;8.63;;;;;;;4.67;52.88;103348.50;5038146;28;20394;-63
2022/04/16 01:39:50;;;;;;;17.05;7.55;;;;;;;4.79;52.53;103352.28;5033534;28;20083;-65
2022/04/16 01:42:15;;;;;;;14.45;8.25;;;;;;;5.08;51.89;103357.28;5015305;28;20056;-63
2022/04/16 01:44:43;;;;;;;21.80;8.60;;;;;;;4.86;52.35;103361.06;5050971;28;20035;-64
2022/04/16 01:47:10;;;;;;;16.95;7.78;;;;;;;4.83;52.56;103359.28;5037478;28;20033;-65
2022/04/16 01:49:36;;;;;;;13.25;6.95;;;;;;;5.05;51.77;103357.19;5038692;28;20040;-64
2022/04/16 01:52:03;;;;;;;16.65;8.20;;;;;;;5.00;51.87;103359.69;5035353;28;20468;-65
2022/04/16 01:54:28;;;;;;;15.90;8.63;;;;;;;4.99;52.22;103367.44;5039278;28;20059;-65
2022/04/16 01:56:53;;;;;;;17.65;8.93;;;;;;;4.97;52.09;103359.63;5035021;28;20120;-64
2022/04/16 01:59:20;;;;;;;20.42;9.00;;;;;;;4.79;52.49;103370.41;5037540;28;20067;-63
2022/04/16 02:01:45;;;;;;;19.02;9.10;;;;;;;4.74;52.69;103364.22;5036242;28;20029;-64
2022/04/16 02:04:11;;;;;;;14.93;8.15;;;;;;;4.55;53.44;103364.63;5034564;28;20131;-63
2022/04/16 02:06:37;;;;;;;18.80;9.27;;;;;;;4.77;52.53;103366.91;5052898;28;20083;-63
2022/04/16 02:09:03;;;;;;;18.10;9.05;;;;;;;4.79;52.59;103365.22;5017159;28;20044;-64
2022/04/16 02:11:30;;;;;;;19.05;8.05;;;;;;;4.81;52.66;103368.72;5038191;28;20533;-64
2022/04/16 02:13:55;;;;;;;18.90;8.52;;;;;;;4.88;52.13;103364.59;5033903;28;20102;-64
2022/04/16 02:16:21;;;;;;;25.92;10.75;;;;;;;5.05;51.41;103367.56;5039226;28;20025;-64
2022/04/16 02:18:47;;;;;;;12.80;8.32;;;;;;;4.99;51.89;103367.44;4986279;28;20131;-66
2022/04/16 02:21:12;;;;;;;16.70;9.27;;;;;;;4.93;52.24;103378.53;5038611;28;20465;-63
2022/04/16 02:23:38;;;;;;;16.80;10.63;;;;;;;4.84;52.54;103373.97;5002002;28;20056;-64
2022/04/16 02:26:07;;;;;;;16.58;10.07;;;;;;;4.67;52.69;103382.16;5033495;28;20024;-64
2022/04/16 02:28:32;;;;;;;21.38;10.07;;;;;;;4.73;53.01;103383.19;5034127;28;20080;-64
2022/04/16 02:30:58;;;;;;;17.10;9.30;;;;;;;4.74;52.49;103390.13;5036276;28;20266;-65
2022/04/16 02:33:23;;;;;;;18.15;9.65;;;;;;;4.72;52.81;103386.66;5009803;28;20044;-64
2022/04/16 02:35:48;;;;;;;19.45;9.40;;;;;;;4.90;52.25;103396.63;5038838;28;20029;-72
2022/04/16 02:38:14;;;;;;;20.75;10.43;;;;;;;4.74;52.52;103395.31;5037495;28;20037;-72
2022/04/16 02:40:39;;;;;;;20.80;9.40;;;;;;;4.46;53.56;103395.47;5038827;28;20048;-72
2022/04/16 02:43:05;;;;;;;22.13;9.07;;;;;;;4.61;53.14;103403.63;5018903;28;20040;-72
2022/04/16 02:48:15;;;;;;;21.73;9.52;;;;;;;4.55;53.02;103409.53;5022513;28;20545;-63
2022/04/16 02:50:40;;;;;;;18.67;9.23;;;;;;;4.59;53.38;103410.50;5037387;28;20036;-64
2022/04/16 02:53:06;;;;;;;17.10;8.50;;;;;;;4.63;53.03;103412.28;5014135;28;20063;-64
2022/04/16 02:55:31;;;;;;;23.70;10.45;;;;;;;4.73;53.07;103409.13;5041316;28;20079;-64
2022/04/16 02:57:57;;;;;;;22.40;9.30;;;;;;;4.80;52.71;103413.59;5012165;28;20053;-65
2022/04/16 03:00:23;;;;;;;15.30;8.73;;;;;;;4.79;52.49;103422.22;5037477;28;20045;-64
2022/04/16 03:02:50;;;;;;;20.17;9.32;;;;;;;4.95;52.18;103422.66;5009305;28;20048;-70
2022/04/16 03:05:15;;;;;;;19.02;9.40;;;;;;;4.84;52.33;103425.81;5044671;28;20519;-69
2022/04/16 03:07:41;;;;;;;19.38;8.25;;;;;;;4.68;52.50;103423.66;5033228;28;20059;-74
2022/04/16 03:10:08;;;;;;;19.55;7.80;;;;;;;4.62;52.47;103426.97;5052470;28;20021;-62
2022/04/16 03:12:45;;;;;;;22.00;8.55;;;;;;;4.48;52.71;103424.88;5036574;28;20072;-64
2022/04/16 03:17:56;;;;;;;18.20;8.20;;;;;;;4.23;52.91;103439.75;5038105;28;20091;-63
2022/04/16 03:20:21;;;;;;;20.48;8.85;;;;;;;4.10;53.11;103432.47;5043598;28;20033;-63
2022/04/16 03:22:47;;;;;;;13.25;7.22;;;;;;;4.14;52.60;103436.88;5038733;28;20037;-62
2022/04/16 03:25:12;;;;;;;18.92;8.38;;;;;;;3.98;52.98;103439.06;5037810;28;20035;-63
2022/04/16 03:27:38;;;;;;;13.48;7.20;;;;;;;3.87;52.74;103429.22;5015429;28;20639;-63
2022/04/16 03:30:04;;;;;;;15.05;7.07;;;;;;;3.58;53.21;103431.81;5038610;28;20029;-63
2022/04/16 03:32:30;;;;;;;14.13;6.72;;;;;;;3.64;52.33;103436.31;5019757;28;20048;-63
2022/04/16 03:34:56;;;;;;;17.58;6.45;;;;;;;3.44;52.43;103438.28;5047482;28;20036;-63
2022/04/16 03:37:24;;;;;;;10.15;5.60;;;;;;;3.52;51.59;103444.56;5015242;28;20068;-63
2022/04/16 03:39:51;;;;;;;8.48;4.97;;;;;;;3.53;50.77;103443.72;5038017;28;20171;-66
2022/04/16 03:42:18;;;;;;;10.43;4.78;;;;;;;3.49;50.94;103447.94;5041475;28;20131;-66
2022/04/16 03:44:43;;;;;;;9.75;5.32;;;;;;;3.30;50.92;103456.81;5037826;28;20611;-65
2022/04/16 03:47:10;;;;;;;12.77;5.70;;;;;;;3.37;50.30;103457.91;5013854;28;20992;-63
2022/04/16 03:49:37;;;;;;;8.63;4.25;;;;;;;3.24;50.18;103455.72;5040600;28;20036;-64
2022/04/16 03:52:03;;;;;;;13.35;4.55;;;;;;;3.27;49.92;103455.81;5012068;28;20033;-64
2022/04/16 03:59:59;;;;;;;9.32;3.47;;;;;;;3.11;48.90;103465.66;5038167;28;20063;-63
2022/04/16 04:02:27;;;;;;;8.80;3.20;;;;;;;2.84;49.00;103470.78;5040396;28;20594;-69
2022/04/16 04:04:53;;;;;;;14.13;4.40;;;;;;;2.91;48.52;103472.75;5037885;28;20108;-64
2022/04/16 04:07:18;;;;;;;9.57;3.92;;;;;;;3.05;48.12;103469.75;5039831;28;20584;-64
2022/04/16 04:09:44;;;;;;;7.50;2.72;;;;;;;2.87;47.91;103472.59;5038886;28;20029;-64
2022/04/16 04:12:11;;;;;;;4.57;2.10;;;;;;;2.90;47.36;103477.88;5011798;28;20043;-63
2022/04/16 04:14:41;;;;;;;4.90;2.03;;;;;;;2.96;46.70;103475.50;5040905;28;20040;-64
2022/04/16 04:17:08;;;;;;;5.68;1.85;;;;;;;2.90;46.38;103475.28;5039005;28;20047;-64
2022/04/16 04:19:36;;;;;;;4.18;1.77;;;;;;;2.69;46.82;103475.41;5040668;28;20036;-63
2022/04/16 04:22:03;;;;;;;7.15;2.13;;;;;;;2.65;46.82;103474.44;5038086;28;20194;-64
2022/04/16 04:24:28;;;;;;;8.15;1.77;;;;;;;2.66;46.99;103478.75;5040802;28;20040;-62
2022/04/16 04:26:56;;;;;;;7.50;1.80;;;;;;;2.64;46.59;103482.13;5034636;28;20424;-62
2022/04/16 04:29:21;;;;;;;5.22;1.70;;;;;;;2.29;46.80;103477.47;5039340;28;20061;-62
2022/04/16 04:31:47;;;;;;;5.97;1.17;;;;;;;2.32;46.46;103480.16;5037040;28;20615;-62
2022/04/16 04:34:12;;;;;;;4.53;1.02;;;;;;;2.43;45.99;103487.41;5032175;28;20045;-62
2022/04/16 04:36:38;;;;;;;3.20;1.02;;;;;;;2.48;46.02;103491.03;5039329;28;20118;-63
2022/04/16 04:39:03;;;;;;;4.47;1.17;;;;;;;2.56;45.58;103492.19;5038157;28;20037;-62
2022/04/16 04:41:29;;;;;;;4.72;1.00;;;;;;;2.44;45.41;103494.31;5040397;28;20075;-62
2022/04/16 04:43:54;;;;;;;2.92;0.85;;;;;;;2.53;45.01;103497.22;4996309;28;20061;-62
2022/04/16 04:46:20;;;;;;;2.83;0.90;;;;;;;2.39;45.10;103491.59;5043594;28;20320;-64
2022/04/16 04:48:45;;;;;;;3.25;0.93;;;;;;;2.60;44.54;103493.16;5040784;28;20121;-64
2022/04/16 04:51:12;;;;;;;4.07;0.80;;;;;;;2.43;44.67;103502.91;5038561;28;20033;-64
2022/04/16 04:53:38;;;;;;;3.92;1.15;;;;;;;2.25;44.80;103496.25;5036389;28;20429;-63
2022/04/16 04:56:03;;;;;;;1.13;0.60;;;;;;;2.31;44.27;103506.81;5039953;28;20036;-63
2022/04/16 04:58:29;;;;;;;1.60;0.28;;;;;;;2.19;44.46;103503.75;5039307;28;20079;-63
2022/04/16 05:00:54;;;;;;;1.58;0.30;;;;;;;2.20;44.65;103509.78;5037985;28;20569;-64
2022/04/16 05:03:20;;;;;;;1.23;0.22;;;;;;;2.17;44.53;103512.25;5038637;28;20509;-65
2022/04/16 05:05:45;;;;;;;0.90;0.47;;;;;;;2.01;44.96;103513.41;5038744;28;20041;-66
2022/04/16 05:08:11;;;;;;;1.38;0.43;;;;;;;1.94;44.74;103513.16;5037510;28;20587;-67
2022/04/16 05:10:36;;;;;;;0.60;0.28;;;;;;;2.19;44.63;103521.81;5055444;28;20063;-67
2022/04/16 05:13:02;;;;;;;1.30;0.10;;;;;;;2.19;44.39;103524.41;5037446;28;20037;-67
2022/04/16 05:15:27;;;;;;;0.52;0.20;;;;;;;2.16;44.28;103532.03;5038087;28;20033;-64
2022/04/16 05:17:53;;;;;;;1.05;0.20;;;;;;;2.21;44.11;103527.91;5036742;28;20037;-63
2022/04/16 05:20:20;;;;;;;0.80;0.20;;;;;;;2.33;43.95;103536.13;5032196;28;20481;-63
2022/04/16 05:22:46;;;;;;;1.33;0.28;;;;;;;2.94;43.23;103539.16;5037421;28;20158;-62
2022/04/16 05:25:12;;;;;;;1.00;0.15;;;;;;;4.51;39.37;103528.53;5037775;28;20119;-63
2022/04/16 05:27:37;;;;;;;1.15;0.20;;;;;;;5.87;37.05;103520.75;5053857;28;20105;-64
2022/04/16 05:30:07;;;;;;;0.40;0.10;;;;;;;7.27;34.94;103537.31;5036999;28;20691;-63
2022/04/16 05:32:36;;;;;;;2.85;0.57;;;;;;;7.49;32.82;103535.94;5036635;28;20236;-63
2022/04/16 05:35:07;;;;;;;1.75;0.20;;;;;;;8.38;31.16;103541.50;5051152;28;20041;-63
2022/04/16 05:37:32;;;;;;;4.13;0.20;;;;;;;9.11;30.28;103551.00;5038208;28;20037;-62
2022/04/16 05:39:58;;;;;;;1.00;0.13;;;;;;;9.87;28.92;103549.84;5035358;28;20102;-65
2022/04/16 05:42:23;;;;;;;2.35;0.30;;;;;;;9.92;28.73;103545.50;5038003;28;20049;-65
2022/04/16 05:44:49;;;;;;;1.67;0.30;;;;;;;10.32;27.91;103545.69;5032878;28;20045;-65
2022/04/16 05:47:14;;;;;;;0.77;0.10;;;;;;;11.04;27.65;103554.59;5035937;28;20127;-66
2022/04/16 05:49:40;;;;;;;1.23;0.20;;;;;;;10.82;26.56;103555.47;5038063;28;20067;-66
2022/04/16 05:52:06;;;;;;;3.28;0.10;;;;;;;9.56;29.15;103554.81;5033815;28;20063;-65
2022/04/16 05:54:33;;;;;;;0.73;0.17;;;;;;;10.22;27.92;103550.88;5039069;28;20039;-65
2022/04/16 05:56:58;;;;;;;0.63;0.10;;;;;;;10.17;27.66;103555.22;5034127;28;20029;-68
2022/04/16 05:59:24;;;;;;;0.90;0.25;;;;;;;10.08;27.66;103560.41;5038016;28;20031;-66
2022/04/16 06:01:50;;;;;;;1.73;0.13;;;;;;;10.15;28.29;103561.31;5037027;28;20094;-65
2022/04/16 06:04:15;;;;;;;2.50;0.13;;;;;;;11.21;26.23;103566.81;5051383;28;20127;-63
2022/04/16 06:06:41;;;;;;;0.40;0.10;;;;;;;10.66;26.99;103558.84;5034365;28;20028;-68
2022/04/16 06:09:07;;;;;;;1.70;0.40;;;;;;;9.84;27.89;103582.03;5037028;28;20395;-65
2022/04/16 06:11:32;;;;;;;3.22;0.25;;;;;;;10.66;27.07;103570.22;5019033;28;20047;-63
2022/04/16 06:13:58;;;;;;;0.40;0.10;;;;;;;11.21;26.70;103577.28;5033114;28;20033;-63
2022/04/16 06:16:23;;;;;;;0.65;0.20;;;;;;;12.09;25.28;103570.22;5039045;28;20032;-64
2022/04/16 06:18:49;;;;;;;1.85;0.32;;;;;;;11.72;25.67;103578.13;5034151;28;20040;-64
2022/04/16 06:21:15;;;;;;;3.22;0.10;;;;;;;12.07;25.40;103582.47;5038301;28;20248;-63
2022/04/16 06:23:41;;;;;;;1.27;0.52;;;;;;;12.39;24.91;103578.81;5035098;28;20052;-63
2022/04/16 06:26:06;;;;;;;0.70;0.10;;;;;;;12.25;24.59;103586.75;5036750;28;20033;-65
2022/04/16 06:28:32;;;;;;;1.95;0.30;;;;;;;11.88;25.62;103594.72;5036776;28;20049;-62
2022/04/16 06:30:57;;;;;;;0.63;0.10;;;;;;;12.16;24.81;103585.03;5035704;28;20476;-63
2022/04/16 06:33:23;;;;;;;2.50;0.10;;;;;;;11.13;26.34;103592.09;5035918;28;20040;-63
2022/04/16 06:35:49;;;;;;;0.60;0.25;;;;;;;11.77;25.51;103578.13;5034064;28;20033;-64
2022/04/16 06:38:14;;;;;;;0.55;0.20;;;;;;;11.01;26.30;103588.59;5035407;28;20052;-63
2022/04/16 06:40:40;;;;;;;0.70;0.10;;;;;;;11.63;25.73;103593.88;5036990;28;20040;-64
2022/04/16 06:43:05;;;;;;;1.45;0.50;;;;;;;11.65;25.56;103600.84;5031977;28;20084;-66
2022/04/16 06:45:31;;;;;;;0.77;0.20;;;;;;;11.54;25.86;103604.34;5017655;28;20382;-66
2022/04/16 06:47:57;;;;;;;2.22;0.30;;;;;;;11.59;26.23;103598.22;5034769;28;20073;-65
2022/04/16 06:50:22;;;;;;;1.00;0.38;;;;;;;12.45;25.04;103607.66;5030801;28;20045;-65
2022/04/16 06:52:48;;;;;;;1.92;0.10;;;;;;;13.94;23.06;103610.09;5031833;28;20041;-66
2022/04/16 06:55:13;;;;;;;0.57;0.10;;;;;;;14.25;22.94;103600.94;5033022;28;20524;-67
2022/04/16 06:57:39;;;;;;;2.70;0.47;;;;;;;14.13;22.22;103615.13;5033323;28;20526;-67
2022/04/16 07:00:06;;;;;;;0.82;0.20;;;;;;;13.49;23.10;103616.59;5034042;28;20120;-69
2022/04/16 07:02:32;;;;;;;1.20;0.10;;;;;;;11.83;24.92;103613.06;5032707;28;20040;-68
2022/04/16 07:04:58;;;;;;;1.15;0.20;;;;;;;12.80;24.73;103609.25;5030272;28;20029;-68
2022/04/16 07:07:24;;;;;;;1.23;0.20;;;;;;;12.92;23.81;103617.06;5032632;28;20068;-68
2022/04/16 07:09:49;;;;;;;0.40;0.10;;;;;;;12.98;24.02;103614.41;5042488;22;20037;-75
2022/04/16 07:12:15;;;;;;;2.38;0.10;;;;;;;12.43;24.71;103612.03;5032730;28;20057;-75
2022/04/16 07:14:41;;;;;;;0.80;0.10;;;;;;;11.84;25.09;103633.19;5023419;28;20025;-75
2022/04/16 07:17:07;;;;;;;0.60;0.20;;;;;;;12.58;24.76;103618.94;5053104;28;20721;-77
2022/04/16 07:19:33;;;;;;;1.20;0.10;;;;;;;12.90;24.52;103627.56;5024792;28;20082;-77
2022/04/16 07:21:59;;;;;;;2.05;0.25;;;;;;;12.28;24.69;103632.19;5020964;28;20074;-78
2022/04/16 07:24:25;;;;;;;0.40;0.13;;;;;;;12.59;24.84;103621.56;5040899;28;20029;-79
2022/04/16 07:26:53;;;;;;;0.73;0.10;;;;;;;12.97;24.54;103623.13;5041623;28;20025;-76
2022/04/16 07:29:23;;;;;;;1.05;0.10;;;;;;;13.50;23.57;103615.75;5037298;28;20037;-78
2022/04/16 07:31:49;;;;;;;0.82;0.10;;;;;;;12.92;24.28;103609.19;5056420;28;20129;-77
2022/04/16 07:34:14;;;;;;;1.80;0.13;;;;;;;13.16;23.83;103625.63;5023179;28;20207;-76
2022/04/16 07:36:44;;;;;;;0.77;0.10;;;;;;;13.15;23.97;103616.88;5038514;28;20586;-78
2022/04/16 07:39:11;;;;;;;3.33;0.35;;;;;;;12.99;24.31;103621.38;5022574;28;20117;-83
2022/04/16 07:41:37;;;;;;;0.68;0.10;;;;;;;14.11;23.50;103614.28;5047253;28;20074;-76
2022/04/16 07:44:03;;;;;;;1.73;0.40;;;;;;;14.38;23.04;103614.81;5056958;28;20120;-78
2022/04/16 07:46:30;;;;;;;2.53;0.40;;;;;;;15.29;22.26;103617.09;5027426;28;20033;-78
2022/04/16 07:49:00;;;;;;;2.25;0.20;;;;;;;15.74;21.29;103625.06;5018826;28;20044;-77
2022/04/16 07:51:26;;;;;;;1.88;0.10;;;;;;;14.93;21.83;103616.75;5059075;28;20485;-76
2022/04/16 07:53:53;;;;;;;0.52;0.20;;;;;;;14.06;22.74;103618.72;5030260;28;20132;-78
2022/04/16 07:56:19;;;;;;;0.60;0.13;;;;;;;13.81;23.66;103624.25;5025924;28;20091;-79
2022/04/16 07:58:44;;;;;;;4.35;2.78;;;;;;;13.74;23.62;103622.53;5022995;28;20045;-78
2022/04/16 08:01:10;;;;;;;5.10;0.30;;;;;;;14.21;23.20;103613.28;5041805;28;20041;-78
2022/04/16 08:03:38;;;;;;;1.52;0.40;;;;;;;14.52;22.04;103618.16;5039496;28;20519;-78
2022/04/16 08:06:04;;;;;;;1.30;0.20;;;;;;;14.50;22.06;103625.22;5039643;28;20682;-76
2022/04/16 08:08:30;;;;;;;2.63;0.22;;;;;;;13.49;23.05;103620.09;5049505;28;20135;-77
2022/04/16 08:10:56;;;;;;;2.58;0.52;;;;;;;13.33;23.58;103623.75;5049272;28;20487;-80
2022/04/16 08:13:22;;;;;;;1.90;0.30;;;;;;;13.70;22.92;103631.34;5041416;28;20033;-79
2022/04/16 08:15:48;;;;;;;0.95;0.20;;;;;;;13.71;22.40;103622.56;5028245;28;20033;-77
2022/04/16 08:18:14;;;;;;;1.67;0.20;;;;;;;12.89;23.28;103624.94;5015261;28;20051;-79
2022/04/16 08:20:39;;;;;;;0.38;0.10;;;;;;;14.08;22.79;103624.84;5047515;28;20447;-78
2022/04/16 08:23:06;;;;;;;0.52;0.20;;;;;;;15.02;21.04;103624.50;5027475;28;20037;-78
2022/04/16 08:27:58;;;;;;;0.82;0.30;;;;;;;13.92;22.99;103630.25;5059427;28;20494;-79
2022/04/16 08:30:24;;;;;;;0.93;0.10;;;;;;;13.84;22.74;103633.84;5028814;28;20075;-76
2022/04/16 08:32:50;;;;;;;1.08;0.20;;;;;;;;;;5043031;28;20048;-78
2022/04/16 08:35:16;;;;;;;2.05;0.10;;;;;;;14.51;21.61;103626.97;5069889;28;20132;-78
2022/04/16 08:37:43;;;;;;;1.13;0.20;;;;;;;13.50;22.85;103628.88;5045072;28;20049;-74
2022/04/16 08:40:10;;;;;;;0.63;0.17;;;;;;;14.03;22.38;103639.78;5029502;28;20028;-76
2022/04/16 08:42:37;;;;;;;2.03;0.17;;;;;;;13.74;21.94;103643.56;5040925;28;20052;-77
2022/04/16 08:45:06;;;;;;;0.75;0.30;;;;;;;14.07;22.50;103642.34;5054524;28;20112;-77
2022/04/16 08:47:32;;;;;;;0.68;0.20;;;;;;;14.67;20.54;103644.28;5042845;28;20049;-76
2022/04/16 08:49:59;;;;;;;0.30;0.10;;;;;;;13.73;21.50;103645.31;5044449;28;20041;-76
2022/04/16 08:52:29;;;;;;;3.65;0.10;;;;;;;13.68;22.22;103639.25;5063580;28;20055;-77
2022/04/16 08:54:56;;;;;;;1.52;0.30;;;;;;;12.65;23.61;103636.44;5060796;28;20033;-76
2022/04/16 08:57:22;;;;;;;1.67;0.20;;;;;;;12.36;24.66;103633.94;5058248;28;20056;-76
2022/04/16 08:59:52;;;;;;;1.52;0.25;;;;;;;12.01;24.50;103633.13;5030395;28;20037;-77
2022/04/16 09:02:19;;;;;;;0.63;0.13;;;;;;;11.77;24.09;103638.38;5042686;28;20056;-78
2022/04/16 09:04:46;;;;;;;0.20;0.10;;;;;;;11.61;24.11;103643.63;5060912;28;20039;-78
2022/04/16 09:07:12;;;;;;;0.90;0.15;;;;;;;10.82;25.68;103633.94;5031960;28;20347;-77
2022/04/16 09:09:38;;;;;;;1.42;0.30;;;;;;;10.61;27.07;103639.91;5029996;28;20048;-77
2022/04/16 09:12:14;;;;;;;3.00;0.13;;;;;;;10.84;27.42;103637.44;5023793;28;20036;-74
2022/04/16 09:14:44;;;;;;;1.52;0.17;;;;;;;10.84;26.19;103640.91;5067040;28;20113;-75
2022/04/16 09:17:09;;;;;;;3.03;0.43;;;;;;;10.91;26.17;103638.34;5022467;28;20637;-77
2022/04/16 09:19:35;;;;;;;0.30;0.10;;;;;;;10.70;26.37;103639.09;5040514;28;20041;-77
2022/04/16 09:22:01;;;;;;;1.67;0.20;;;;;;;10.40;27.25;103636.34;5041733;28;20392;-78
2022/04/16 09:24:26;;;;;;;1.15;0.13;;;;;;;10.20;26.76;103638.88;5059915;28;20056;-77
2022/04/16 09:26:52;;;;;;;0.95;0.13;;;;;;;10.47;27.58;103632.03;5027201;28;20456;-78
2022/04/16 09:29:18;;;;;;;1.38;0.35;;;;;;;9.78;27.66;103629.84;5042877;28;20359;-78
2022/04/16 09:31:47;;;;;;;1.98;0.38;;;;;;;9.96;27.58;103623.91;5044563;28;20534;-77
2022/04/16 09:34:18;;;;;;;1.40;0.10;;;;;;;9.68;26.45;103616.69;5022708;28;20039;-78
2022/04/16 09:36:44;;;;;;;0.20;0.00;;;;;;;9.59;26.22;103623.63;5024599;28;20507;-79
2022/04/16 09:39:11;;;;;;;0.30;0.25;;;;;;;9.85;26.42;103619.47;5043486;28;20045;-78
2022/04/16 09:41:41;;;;;;;1.85;0.10;;;;;;;9.87;27.67;103623.84;5059490;28;20064;-77
2022/04/16 09:44:27;;;;;;;0.45;0.10;;;;;;;10.34;27.53;103630.22;5041172;28;20531;-75
2022/04/16 09:46:55;;;;;;;0.73;0.10;;;;;;;10.93;27.33;103626.09;5057790;28;20063;-78
2022/04/16 09:49:21;;;;;;;0.63;0.10;;;;;;;10.62;26.87;103632.09;5044960;28;20518;-79
2022/04/16 09:51:48;;;;;;;1.60;0.20;;;;;;;10.31;27.49;103614.53;5030596;28;20143;-76
2022/04/16 09:54:15;;;;;;;1.20;0.10;;;;;;;10.94;27.40;103617.41;5057633;28;20625;-77
2022/04/16 09:56:45;;;;;;;3.20;0.10;;;;;;;11.24;27.05;103608.69;5026129;28;20032;-77
2022/04/16 09:59:14;;;;;;;0.50;0.10;;;;;;;10.48;26.45;103607.66;5013666;28;20033;-77
2022/04/16 10:01:46;;;;;;;0.63;0.10;;;;;;;10.29;27.58;103617.13;5045015;28;20059;-78
2022/04/16 10:04:14;;;;;;;5.97;0.20;;;;;;;10.54;27.38;103612.88;5029407;28;20047;-76
2022/04/16 10:06:41;;;;;;;0.77;0.20;;;;;;;10.66;28.28;103600.72;5024839;28;20040;-77
2022/04/16 10:09:22;;;;;;;0.60;0.10;;;;;;;10.39;26.59;103610.19;5054880;28;20084;-78
2022/04/16 10:14:57;;;;;;;0.82;0.10;;;;;;;10.74;27.18;103604.22;5057710;28;20135;-76
2022/04/16 10:17:49;;;;;;;2.13;0.55;;;;;;;11.53;25.89;103606.09;5021263;28;20052;-77
2022/04/16 10:20:20;;;;;;;1.25;0.20;;;;;;;10.97;25.69;103613.06;5018606;28;20033;-77
2022/04/16 10:22:56;;;;;;;2.80;0.43;;;;;;;10.94;25.94;103607.78;5025761;28;20044;-78
2022/04/16 10:25:41;;;;;;;0.20;0.00;;;;;;;10.98;25.83;103609.56;5064113;28;20472;-77
2022/04/16 10:28:09;;;;;;;4.43;0.40;;;;;;;11.91;25.99;103604.31;5037552;28;20041;-76
2022/04/16 10:30:49;;;;;;;0.30;0.10;;;;;;;11.37;24.63;103597.34;5057835;28;20082;-77
2022/04/16 10:33:19;;;;;;;0.50;0.10;;;;;;;10.57;25.44;103606.78;5023938;28;20052;-78
2022/04/16 10:35:58;;;;;;;0.93;0.15;;;;;;;11.33;25.34;103606.13;5029527;28;20021;-76
2022/04/16 10:38:36;;;;;;;1.88;0.10;;;;;;;11.45;25.54;103610.47;5024101;28;20071;-76
2022/04/16 10:41:10;;;;;;;0.60;0.13;;;;;;;11.29;24.69;103606.13;5041255;28;20411;-76
2022/04/16 10:43:35;;;;;;;0.40;0.10;;;;;;;11.17;25.20;103605.22;5055447;28;20130;-77
2022/04/16 10:46:06;;;;;;;2.65;0.35;;;;;;;10.41;25.62;103606.75;5041405;28;20124;-77
2022/04/16 10:48:33;;;;;;;1.63;0.40;;;;;;;10.37;26.06;103601.47;5024008;28;20045;-77
2022/04/16 10:51:00;;;;;;;1.05;0.10;;;;;;;10.79;25.96;103592.91;5021612;28;20025;-77
2022/04/16 10:53:30;;;;;;;1.30;0.38;;;;;;;10.78;26.06;103600.75;5045037;28;20923;-77
2022/04/16 10:55:56;;;;;;;1.08;0.20;;;;;;;11.54;24.40;103604.34;5056473;28;20396;-77
2022/04/16 10:58:28;;;;;;;0.30;0.10;;;;;;;11.65;24.54;103602.59;5054502;28;20494;-76
2022/04/16 11:01:06;;;;;;;1.90;0.10;;;;;;;11.77;24.18;103602.59;5037807;28;20171;-77
2022/04/16 11:03:31;;;;;;;1.50;0.17;;;;;;;11.94;24.34;103592.09;5022498;28;20037;-77
2022/04/16 11:06:05;;;;;;;2.50;0.15;;;;;;;12.15;23.35;103604.25;5055262;28;20040;-77
2022/04/16 11:08:34;;;;;;;0.28;0.10;;;;;;;11.66;24.02;103604.31;5040074;28;20643;-77
2022/04/16 11:11:02;;;;;;;0.80;0.10;;;;;;;11.58;23.64;103595.63;5054783;28;20258;-76
2022/04/16 11:13:32;;;;;;;0.47;0.10;;;;;;;12.27;23.48;103593.72;5029384;28;20045;-76
2022/04/16 11:15:58;;;;;;;2.33;0.10;;;;;;;11.65;24.19;103608.69;5055529;28;20078;-75
2022/04/16 11:18:25;;;;;;;0.93;0.10;;;;;;;12.31;23.96;103599.81;5023976;28;20510;-76
2022/04/16 11:20:55;;;;;;;1.38;0.10;;;;;;;11.73;23.44;103605.19;5055546;28;20079;-78
2022/04/16 11:23:27;;;;;;;1.10;0.10;;;;;;;11.56;24.05;103602.59;5039533;28;20028;-77
2022/04/16 11:34:15;;;;;;;2.55;0.10;;;;;;;11.54;23.65;103586.88;5049773;28;20044;-76
2022/04/16 11:36:40;;;;;;;0.32;0.10;;;;;;;11.75;22.70;103588.59;5054136;28;20071;-76
2022/04/16 11:39:19;;;;;;;0.80;0.32;;;;;;;11.81;23.44;103588.63;5052040;28;20065;-76
2022/04/16 11:41:53;;;;;;;0.52;0.10;;;;;;;12.49;23.11;103593.63;5058121;28;20048;-77
2022/04/16 11:44:41;;;;;;;1.05;0.10;;;;;;;12.13;22.14;103599.91;5038580;28;20079;-78
2022/04/16 11:47:14;;;;;;;0.80;0.10;;;;;;;12.47;22.87;103603.28;5054844;28;20041;-76
2022/04/16 11:49:43;;;;;;;0.50;0.20;;;;;;;12.22;22.15;103595.50;5037602;28;20037;-76
2022/04/16 11:52:10;;;;;;;1.08;0.20;;;;;;;11.48;21.92;103593.88;5026589;28;20114;-76